sensor_id;sensor_type;location;lat;lon;timestamp;temperature;humidity
16136;DHT22;8173;48.354;9.248;2023-04-06T00:00:33;-2.00;99.90
16136;DHT22;8173;48.354;9.248;2023-04-06T00:05:28;-2.10;99.90
16136;DHT22;8173;48.354;9.248;2023-04-06T00:07:57;-2.10;99.90
16136;DHT22;8173;48.354;9.248;2023-04-06T00:10:24;-2.10;99.90
16136;DHT22;8173;48.354;9.248;2023-04-06T00:12:51;-2.10;99.90
16136;DHT22;8173;48.354;9.248;2023-04-06T00:15:18;-2.20;99.90
16136;DHT22;8173;48.354;9.248;2023-04-06T00:17:45;-2.20;99.90
16136;DHT22;8173;48.354;9.248;2023-04-06T00:20:13;-2.10;99.90
16136;DHT22;8173;48.354;9.248;2023-04-06T00:22:40;-2.00;99.90
16136;DHT22;8173;48.354;9.248;2023-04-06T00:25:07;-2.20;99.90
16136;DHT22;8173;48.354;9.248;2023-04-06T00:27:35;-2.30;99.90
16136;DHT22;8173;48.354;9.248;2023-04-06T00:30:02;-2.50;99.90
16136;DHT22;8173;48.354;9.248;2023-04-06T00:32:30;-2.50;99.90
16136;DHT22;8173;48.354;9.248;2023-04-06T00:34:57;-2.60;99.90
16136;DHT22;8173;48.354;9.248;2023-04-06T00:37:25;-2.60;99.90
16136;DHT22;8173;48.354;9.248;2023-04-06T00:39:52;-2.60;99.90
16136;DHT22;8173;48.354;9.248;2023-04-06T00:42:20;-2.50;99.90
16136;DHT22;8173;48.354;9.248;2023-04-06T00:44:51;-2.60;99.90
16136;DHT22;8173;48.354;9.248;2023-04-06T00:47:18;-2.70;99.90
16136;DHT22;8173;48.354;9.248;2023-04-06T00:49:45;-2.60;99.90
16136;DHT22;8173;48.354;9.248;2023-04-06T00:52:12;-2.60;99.90
16136;DHT22;8173;48.354;9.248;2023-04-06T00:54:40;-2.60;99.90
16136;DHT22;8173;48.354;9.248;2023-04-06T00:57:07;-2.70;99.90
16136;DHT22;8173;48.354;9.248;2023-04-06T00:59:34;-2.80;99.90
16136;DHT22;8173;48.354;9.248;2023-04-06T01:02:01;-2.90;99.90
16136;DHT22;8173;48.354;9.248;2023-04-06T01:04:28;-3.00;99.90
16136;DHT22;8173;48.354;9.248;2023-04-06T01:06:55;-3.00;99.90
16136;DHT22;8173;48.354;9.248;2023-04-06T01:09:22;-3.10;99.90
16136;DHT22;8173;48.354;9.248;2023-04-06T01:11:50;-3.10;99.90
16136;DHT22;8173;48.354;9.248;2023-04-06T01:14:17;-3.20;99.90
16136;DHT22;8173;48.354;9.248;2023-04-06T01:16:43;-3.20;99.90
16136;DHT22;8173;48.354;9.248;2023-04-06T01:19:11;-3.10;99.90
16136;DHT22;8173;48.354;9.248;2023-04-06T01:21:39;-3.10;99.90
16136;DHT22;8173;48.354;9.248;2023-04-06T01:24:09;-3.10;99.90
16136;DHT22;8173;48.354;9.248;2023-04-06T01:26:37;-3.10;99.90
16136;DHT22;8173;48.354;9.248;2023-04-06T01:29:04;-3.10;99.90
16136;DHT22;8173;48.354;9.248;2023-04-06T01:31:31;-3.10;99.90
16136;DHT22;8173;48.354;9.248;2023-04-06T01:33:58;-3.10;99.90
16136;DHT22;8173;48.354;9.248;2023-04-06T01:36:25;-3.10;99.90
16136;DHT22;8173;48.354;9.248;2023-04-06T01:38:52;-3.10;99.90
16136;DHT22;8173;48.354;9.248;2023-04-06T01:41:20;-3.10;99.90
16136;DHT22;8173;48.354;9.248;2023-04-06T01:43:47;-3.10;99.90
16136;DHT22;8173;48.354;9.248;2023-04-06T01:46:14;-3.10;99.90
16136;DHT22;8173;48.354;9.248;2023-04-06T01:48:41;-3.10;99.90
16136;DHT22;8173;48.354;9.248;2023-04-06T01:51:08;-3.10;99.90
16136;DHT22;8173;48.354;9.248;2023-04-06T01:53:34;-3.10;99.90
16136;DHT22;8173;48.354;9.248;2023-04-06T01:56:01;-3.20;99.90
16136;DHT22;8173;48.354;9.248;2023-04-06T01:58:29;-3.30;99.90
16136;DHT22;8173;48.354;9.248;2023-04-06T02:00:56;-3.30;99.90
16136;DHT22;8173;48.354;9.248;2023-04-06T02:03:23;-3.30;99.90
16136;DHT22;8173;48.354;9.248;2023-04-06T02:05:50;-3.30;99.90
16136;DHT22;8173;48.354;9.248;2023-04-06T02:08:16;-3.30;99.90
16136;DHT22;8173;48.354;9.248;2023-04-06T02:10:43;-3.40;99.90
16136;DHT22;8173;48.354;9.248;2023-04-06T02:13:10;-3.40;99.90
16136;DHT22;8173;48.354;9.248;2023-04-06T02:15:38;-3.50;99.90
16136;DHT22;8173;48.354;9.248;2023-04-06T02:18:05;-3.60;99.90
16136;DHT22;8173;48.354;9.248;2023-04-06T02:20:32;-3.60;99.90
16136;DHT22;8173;48.354;9.248;2023-04-06T02:22:59;-3.50;99.90
16136;DHT22;8173;48.354;9.248;2023-04-06T02:25:26;-3.50;99.90
16136;DHT22;8173;48.354;9.248;2023-04-06T02:27:53;-3.50;99.90
16136;DHT22;8173;48.354;9.248;2023-04-06T02:30:20;-3.50;99.90
16136;DHT22;8173;48.354;9.248;2023-04-06T02:32:48;-3.50;99.90
16136;DHT22;8173;48.354;9.248;2023-04-06T02:35:15;-3.60;99.90
16136;DHT22;8173;48.354;9.248;2023-04-06T02:37:41;-3.80;99.90
16136;DHT22;8173;48.354;9.248;2023-04-06T02:40:09;-3.90;99.90
16136;DHT22;8173;48.354;9.248;2023-04-06T02:42:36;-4.00;99.90
16136;DHT22;8173;48.354;9.248;2023-04-06T02:45:04;-4.00;99.90
16136;DHT22;8173;48.354;9.248;2023-04-06T02:47:31;-4.00;99.90
16136;DHT22;8173;48.354;9.248;2023-04-06T02:49:59;-4.00;99.90
16136;DHT22;8173;48.354;9.248;2023-04-06T02:52:26;-4.00;99.90
16136;DHT22;8173;48.354;9.248;2023-04-06T02:54:53;-4.00;99.90
16136;DHT22;8173;48.354;9.248;2023-04-06T02:57:20;-4.00;99.90
16136;DHT22;8173;48.354;9.248;2023-04-06T02:59:47;-4.10;99.90
16136;DHT22;8173;48.354;9.248;2023-04-06T03:02:14;-4.00;99.90
16136;DHT22;8173;48.354;9.248;2023-04-06T03:04:41;-4.00;99.90
16136;DHT22;8173;48.354;9.248;2023-04-06T03:07:09;-4.10;99.90
16136;DHT22;8173;48.354;9.248;2023-04-06T03:09:37;-4.10;99.90
16136;DHT22;8173;48.354;9.248;2023-04-06T03:12:04;-4.00;99.90
16136;DHT22;8173;48.354;9.248;2023-04-06T03:14:31;-4.00;99.90
16136;DHT22;8173;48.354;9.248;2023-04-06T03:16:58;-4.10;99.90
16136;DHT22;8173;48.354;9.248;2023-04-06T03:19:25;-4.10;99.90
16136;DHT22;8173;48.354;9.248;2023-04-06T03:21:51;-4.20;99.90
16136;DHT22;8173;48.354;9.248;2023-04-06T03:24:19;-4.20;99.90
16136;DHT22;8173;48.354;9.248;2023-04-06T03:26:46;-4.30;99.90
16136;DHT22;8173;48.354;9.248;2023-04-06T03:29:13;-4.20;99.90
16136;DHT22;8173;48.354;9.248;2023-04-06T03:31:40;-4.20;99.90
16136;DHT22;8173;48.354;9.248;2023-04-06T03:34:07;-4.20;99.90
16136;DHT22;8173;48.354;9.248;2023-04-06T03:36:34;-4.20;99.90
16136;DHT22;8173;48.354;9.248;2023-04-06T03:39:01;-4.20;99.90
16136;DHT22;8173;48.354;9.248;2023-04-06T03:41:29;-4.20;99.90
16136;DHT22;8173;48.354;9.248;2023-04-06T03:43:56;-4.30;99.90
16136;DHT22;8173;48.354;9.248;2023-04-06T03:46:22;-4.20;99.90
16136;DHT22;8173;48.354;9.248;2023-04-06T03:48:49;-4.30;99.90
16136;DHT22;8173;48.354;9.248;2023-04-06T03:51:16;-4.30;99.90
16136;DHT22;8173;48.354;9.248;2023-04-06T03:53:43;-4.40;99.90
16136;DHT22;8173;48.354;9.248;2023-04-06T03:56:10;-4.40;99.90
16136;DHT22;8173;48.354;9.248;2023-04-06T03:58:38;-4.50;99.90
16136;DHT22;8173;48.354;9.248;2023-04-06T04:01:04;-4.50;99.90
16136;DHT22;8173;48.354;9.248;2023-04-06T04:03:31;-4.60;99.90
16136;DHT22;8173;48.354;9.248;2023-04-06T04:05:58;-4.60;99.90
16136;DHT22;8173;48.354;9.248;2023-04-06T04:08:25;-4.60;99.90
16136;DHT22;8173;48.354;9.248;2023-04-06T04:10:52;-4.60;99.90
16136;DHT22;8173;48.354;9.248;2023-04-06T04:13:19;-4.60;99.90
16136;DHT22;8173;48.354;9.248;2023-04-06T04:15:47;-4.60;99.90
16136;DHT22;8173;48.354;9.248;2023-04-06T04:18:14;-4.60;99.90
16136;DHT22;8173;48.354;9.248;2023-04-06T04:20:40;-4.60;99.90
16136;DHT22;8173;48.354;9.248;2023-04-06T04:23:07;-4.60;99.90
16136;DHT22;8173;48.354;9.248;2023-04-06T04:25:34;-4.70;99.90
16136;DHT22;8173;48.354;9.248;2023-04-06T04:28:01;-4.70;99.90
16136;DHT22;8173;48.354;9.248;2023-04-06T04:30:28;-4.70;99.90
16136;DHT22;8173;48.354;9.248;2023-04-06T04:32:56;-4.70;99.90
16136;DHT22;8173;48.354;9.248;2023-04-06T04:35:23;-4.70;99.90
16136;DHT22;8173;48.354;9.248;2023-04-06T04:37:50;-4.70;99.90
16136;DHT22;8173;48.354;9.248;2023-04-06T04:40:17;-4.70;99.90
16136;DHT22;8173;48.354;9.248;2023-04-06T04:42:43;-4.70;99.90
16136;DHT22;8173;48.354;9.248;2023-04-06T04:45:10;-4.70;99.90
16136;DHT22;8173;48.354;9.248;2023-04-06T04:47:37;-4.60;99.90
16136;DHT22;8173;48.354;9.248;2023-04-06T04:50:06;-4.60;99.90
16136;DHT22;8173;48.354;9.248;2023-04-06T04:52:33;-4.70;99.90
16136;DHT22;8173;48.354;9.248;2023-04-06T04:55:00;-4.70;99.90
16136;DHT22;8173;48.354;9.248;2023-04-06T04:57:27;-4.70;99.90
16136;DHT22;8173;48.354;9.248;2023-04-06T04:59:53;-4.70;99.90
16136;DHT22;8173;48.354;9.248;2023-04-06T05:02:20;-4.70;99.90
16136;DHT22;8173;48.354;9.248;2023-04-06T05:04:47;-4.70;99.90
16136;DHT22;8173;48.354;9.248;2023-04-06T05:07:15;-4.60;99.90
16136;DHT22;8173;48.354;9.248;2023-04-06T05:09:44;-4.60;99.90
16136;DHT22;8173;48.354;9.248;2023-04-06T05:12:11;-4.60;99.90
16136;DHT22;8173;48.354;9.248;2023-04-06T05:14:37;-4.60;99.90
16136;DHT22;8173;48.354;9.248;2023-04-06T05:17:04;-4.60;99.90
16136;DHT22;8173;48.354;9.248;2023-04-06T05:19:31;-4.60;99.90
16136;DHT22;8173;48.354;9.248;2023-04-06T05:21:58;-4.50;99.90
16136;DHT22;8173;48.354;9.248;2023-04-06T05:24:26;-4.50;99.90
16136;DHT22;8173;48.354;9.248;2023-04-06T05:26:53;-4.40;99.90
16136;DHT22;8173;48.354;9.248;2023-04-06T05:29:20;-4.40;99.90
16136;DHT22;8173;48.354;9.248;2023-04-06T05:31:47;-4.30;99.90
16136;DHT22;8173;48.354;9.248;2023-04-06T05:34:14;-4.10;99.90
16136;DHT22;8173;48.354;9.248;2023-04-06T05:36:41;-3.80;99.90
16136;DHT22;8173;48.354;9.248;2023-04-06T05:39:08;-3.60;99.90
16136;DHT22;8173;48.354;9.248;2023-04-06T05:41:36;-3.50;99.90
16136;DHT22;8173;48.354;9.248;2023-04-06T05:44:03;-3.30;99.90
16136;DHT22;8173;48.354;9.248;2023-04-06T05:46:30;-2.90;99.90
16136;DHT22;8173;48.354;9.248;2023-04-06T05:48:56;-2.20;99.90
16136;DHT22;8173;48.354;9.248;2023-04-06T05:51:23;-1.50;99.90
16136;DHT22;8173;48.354;9.248;2023-04-06T05:53:50;-0.70;99.90
16136;DHT22;8173;48.354;9.248;2023-04-06T05:56:17;0.00;99.90
16136;DHT22;8173;48.354;9.248;2023-04-06T05:58:45;0.60;99.90
16136;DHT22;8173;48.354;9.248;2023-04-06T06:01:12;0.80;99.90
16136;DHT22;8173;48.354;9.248;2023-04-06T06:03:39;1.20;99.90
16136;DHT22;8173;48.354;9.248;2023-04-06T06:06:06;1.30;99.90
16136;DHT22;8173;48.354;9.248;2023-04-06T06:08:33;1.10;99.90
16136;DHT22;8173;48.354;9.248;2023-04-06T06:10:59;1.10;99.90
16136;DHT22;8173;48.354;9.248;2023-04-06T06:13:26;1.30;99.90
16136;DHT22;8173;48.354;9.248;2023-04-06T06:15:54;1.60;99.90
16136;DHT22;8173;48.354;9.248;2023-04-06T06:18:21;1.90;99.90
16136;DHT22;8173;48.354;9.248;2023-04-06T06:20:48;2.50;99.90
16136;DHT22;8173;48.354;9.248;2023-04-06T06:23:15;2.60;99.90
16136;DHT22;8173;48.354;9.248;2023-04-06T06:25:42;2.90;99.90
16136;DHT22;8173;48.354;9.248;2023-04-06T06:28:08;3.10;99.90
16136;DHT22;8173;48.354;9.248;2023-04-06T06:30:35;3.00;99.90
16136;DHT22;8173;48.354;9.248;2023-04-06T06:33:03;3.40;99.90
16136;DHT22;8173;48.354;9.248;2023-04-06T06:35:30;3.60;99.90
16136;DHT22;8173;48.354;9.248;2023-04-06T06:37:57;4.20;99.90
16136;DHT22;8173;48.354;9.248;2023-04-06T06:40:24;4.70;99.90
16136;DHT22;8173;48.354;9.248;2023-04-06T06:42:51;4.90;99.90
16136;DHT22;8173;48.354;9.248;2023-04-06T06:45:18;4.90;99.90
16136;DHT22;8173;48.354;9.248;2023-04-06T06:47:45;5.00;99.90
16136;DHT22;8173;48.354;9.248;2023-04-06T06:50:14;5.20;99.90
16136;DHT22;8173;48.354;9.248;2023-04-06T06:52:41;5.40;99.90
16136;DHT22;8173;48.354;9.248;2023-04-06T06:55:09;5.60;99.90
16136;DHT22;8173;48.354;9.248;2023-04-06T06:57:36;5.90;99.90
16136;DHT22;8173;48.354;9.248;2023-04-06T07:00:04;6.10;99.90
16136;DHT22;8173;48.354;9.248;2023-04-06T07:02:34;6.20;99.90
16136;DHT22;8173;48.354;9.248;2023-04-06T07:05:02;6.30;99.90
16136;DHT22;8173;48.354;9.248;2023-04-06T07:07:32;6.60;99.90
16136;DHT22;8173;48.354;9.248;2023-04-06T07:09:59;7.10;99.90
16136;DHT22;8173;48.354;9.248;2023-04-06T07:12:26;7.30;99.90
16136;DHT22;8173;48.354;9.248;2023-04-06T07:14:53;7.30;99.90
16136;DHT22;8173;48.354;9.248;2023-04-06T07:17:20;7.50;99.90
16136;DHT22;8173;48.354;9.248;2023-04-06T07:19:47;7.80;99.90
16136;DHT22;8173;48.354;9.248;2023-04-06T07:22:13;7.90;99.90
16136;DHT22;8173;48.354;9.248;2023-04-06T07:24:42;8.40;99.90
16136;DHT22;8173;48.354;9.248;2023-04-06T07:27:08;8.90;99.90
16136;DHT22;8173;48.354;9.248;2023-04-06T07:29:35;9.10;99.90
16136;DHT22;8173;48.354;9.248;2023-04-06T07:32:02;9.10;99.90
16136;DHT22;8173;48.354;9.248;2023-04-06T07:34:29;9.30;99.90
16136;DHT22;8173;48.354;9.248;2023-04-06T07:36:59;9.40;99.90
16136;DHT22;8173;48.354;9.248;2023-04-06T07:39:26;9.70;99.90
16136;DHT22;8173;48.354;9.248;2023-04-06T07:41:54;10.00;99.90
16136;DHT22;8173;48.354;9.248;2023-04-06T07:44:21;10.10;99.90
16136;DHT22;8173;48.354;9.248;2023-04-06T07:46:48;10.50;99.90
16136;DHT22;8173;48.354;9.248;2023-04-06T07:49:15;11.00;99.90
16136;DHT22;8173;48.354;9.248;2023-04-06T07:51:42;11.50;99.10
16136;DHT22;8173;48.354;9.248;2023-04-06T07:54:08;11.80;97.90
16136;DHT22;8173;48.354;9.248;2023-04-06T07:56:35;12.30;97.50
16136;DHT22;8173;48.354;9.248;2023-04-06T07:59:03;12.50;94.30
16136;DHT22;8173;48.354;9.248;2023-04-06T08:01:30;12.50;94.80
16136;DHT22;8173;48.354;9.248;2023-04-06T08:03:57;12.60;94.20
16136;DHT22;8173;48.354;9.248;2023-04-06T08:06:24;12.90;91.90
16136;DHT22;8173;48.354;9.248;2023-04-06T08:08:51;13.00;87.40
16136;DHT22;8173;48.354;9.248;2023-04-06T08:11:18;13.10;84.00
16136;DHT22;8173;48.354;9.248;2023-04-06T08:13:45;13.00;84.30
16136;DHT22;8173;48.354;9.248;2023-04-06T08:16:13;13.20;85.70
16136;DHT22;8173;48.354;9.248;2023-04-06T08:18:40;13.40;82.70
16136;DHT22;8173;48.354;9.248;2023-04-06T08:21:07;13.30;83.40
16136;DHT22;8173;48.354;9.248;2023-04-06T08:23:34;13.50;82.00
16136;DHT22;8173;48.354;9.248;2023-04-06T08:26:00;13.50;78.70
16136;DHT22;8173;48.354;9.248;2023-04-06T08:28:27;13.20;78.00
16136;DHT22;8173;48.354;9.248;2023-04-06T08:30:54;13.70;79.80
16136;DHT22;8173;48.354;9.248;2023-04-06T08:33:22;14.70;74.90
16136;DHT22;8173;48.354;9.248;2023-04-06T08:35:49;15.00;75.80
16136;DHT22;8173;48.354;9.248;2023-04-06T08:38:16;15.40;72.50
16136;DHT22;8173;48.354;9.248;2023-04-06T08:40:43;14.60;70.60
16136;DHT22;8173;48.354;9.248;2023-04-06T08:43:14;14.80;69.00
16136;DHT22;8173;48.354;9.248;2023-04-06T08:45:43;14.80;65.60
16136;DHT22;8173;48.354;9.248;2023-04-06T08:48:11;14.90;68.80
16136;DHT22;8173;48.354;9.248;2023-04-06T08:50:40;15.00;65.70
16136;DHT22;8173;48.354;9.248;2023-04-06T08:53:07;14.90;66.20
16136;DHT22;8173;48.354;9.248;2023-04-06T08:55:35;15.20;68.90
16136;DHT22;8173;48.354;9.248;2023-04-06T08:58:03;15.10;70.80
16136;DHT22;8173;48.354;9.248;2023-04-06T09:00:30;14.60;69.30
16136;DHT22;8173;48.354;9.248;2023-04-06T09:02:58;14.10;69.40
16136;DHT22;8173;48.354;9.248;2023-04-06T09:05:25;13.00;66.80
16136;DHT22;8173;48.354;9.248;2023-04-06T09:07:54;13.00;70.80
16136;DHT22;8173;48.354;9.248;2023-04-06T09:10:21;12.50;70.00
16136;DHT22;8173;48.354;9.248;2023-04-06T09:12:50;12.30;71.90
16136;DHT22;8173;48.354;9.248;2023-04-06T09:15:18;13.10;72.80
16136;DHT22;8173;48.354;9.248;2023-04-06T09:17:45;13.40;68.30
16136;DHT22;8173;48.354;9.248;2023-04-06T09:20:12;12.90;67.90
16136;DHT22;8173;48.354;9.248;2023-04-06T09:22:40;12.90;70.30
16136;DHT22;8173;48.354;9.248;2023-04-06T09:25:09;13.70;69.10
16136;DHT22;8173;48.354;9.248;2023-04-06T09:27:37;13.40;66.90
16136;DHT22;8173;48.354;9.248;2023-04-06T09:30:06;12.90;65.80
16136;DHT22;8173;48.354;9.248;2023-04-06T09:32:45;13.10;68.50
16136;DHT22;8173;48.354;9.248;2023-04-06T09:35:12;13.30;70.20
16136;DHT22;8173;48.354;9.248;2023-04-06T09:37:39;13.40;67.90
16136;DHT22;8173;48.354;9.248;2023-04-06T09:40:08;13.30;69.40
16136;DHT22;8173;48.354;9.248;2023-04-06T09:42:36;13.50;70.40
16136;DHT22;8173;48.354;9.248;2023-04-06T09:45:03;14.30;68.00
16136;DHT22;8173;48.354;9.248;2023-04-06T09:47:30;14.50;66.90
16136;DHT22;8173;48.354;9.248;2023-04-06T09:49:59;14.80;67.50
16136;DHT22;8173;48.354;9.248;2023-04-06T09:52:27;14.80;69.20
16136;DHT22;8173;48.354;9.248;2023-04-06T09:55:01;15.10;68.80
16136;DHT22;8173;48.354;9.248;2023-04-06T09:57:33;14.30;64.50
16136;DHT22;8173;48.354;9.248;2023-04-06T10:00:06;14.30;65.50
16136;DHT22;8173;48.354;9.248;2023-04-06T10:02:41;14.60;67.70
16136;DHT22;8173;48.354;9.248;2023-04-06T10:05:16;14.80;67.00
16136;DHT22;8173;48.354;9.248;2023-04-06T10:07:44;14.50;66.50
16136;DHT22;8173;48.354;9.248;2023-04-06T10:10:12;13.70;67.50
16136;DHT22;8173;48.354;9.248;2023-04-06T10:12:43;12.90;65.40
16136;DHT22;8173;48.354;9.248;2023-04-06T10:15:10;13.10;68.10
16136;DHT22;8173;48.354;9.248;2023-04-06T10:17:37;12.80;68.60
16136;DHT22;8173;48.354;9.248;2023-04-06T10:20:08;13.10;64.70
16136;DHT22;8173;48.354;9.248;2023-04-06T10:22:41;13.70;65.70
16136;DHT22;8173;48.354;9.248;2023-04-06T10:25:09;13.90;66.20
16136;DHT22;8173;48.354;9.248;2023-04-06T10:27:36;14.60;66.70
16136;DHT22;8173;48.354;9.248;2023-04-06T10:30:05;14.60;68.40
16136;DHT22;8173;48.354;9.248;2023-04-06T10:32:33;14.70;63.90
16136;DHT22;8173;48.354;9.248;2023-04-06T10:35:08;14.60;67.50
16136;DHT22;8173;48.354;9.248;2023-04-06T10:37:50;14.80;67.00
16136;DHT22;8173;48.354;9.248;2023-04-06T10:40:22;15.00;65.50
16136;DHT22;8173;48.354;9.248;2023-04-06T10:42:51;15.30;71.00
16136;DHT22;8173;48.354;9.248;2023-04-06T10:45:24;15.60;69.30
16136;DHT22;8173;48.354;9.248;2023-04-06T10:47:53;15.70;61.50
16136;DHT22;8173;48.354;9.248;2023-04-06T10:50:20;15.70;64.00
16136;DHT22;8173;48.354;9.248;2023-04-06T10:52:47;15.60;65.50
16136;DHT22;8173;48.354;9.248;2023-04-06T10:55:26;15.10;65.80
16136;DHT22;8173;48.354;9.248;2023-04-06T10:57:53;14.00;69.00
16136;DHT22;8173;48.354;9.248;2023-04-06T11:00:21;13.80;73.30
16136;DHT22;8173;48.354;9.248;2023-04-06T11:02:48;14.20;74.50
16136;DHT22;8173;48.354;9.248;2023-04-06T11:05:15;14.10;70.90
16136;DHT22;8173;48.354;9.248;2023-04-06T11:07:44;13.90;66.40
16136;DHT22;8173;48.354;9.248;2023-04-06T11:10:11;13.40;65.60
16136;DHT22;8173;48.354;9.248;2023-04-06T11:12:37;13.10;64.90
16136;DHT22;8173;48.354;9.248;2023-04-06T11:15:05;13.20;71.10
16136;DHT22;8173;48.354;9.248;2023-04-06T11:17:36;13.90;68.00
16136;DHT22;8173;48.354;9.248;2023-04-06T11:20:05;13.90;69.90
16136;DHT22;8173;48.354;9.248;2023-04-06T11:22:36;14.10;62.70
16136;DHT22;8173;48.354;9.248;2023-04-06T11:25:06;14.60;66.00
16136;DHT22;8173;48.354;9.248;2023-04-06T11:27:33;14.30;62.90
16136;DHT22;8173;48.354;9.248;2023-04-06T11:30:01;14.00;67.50
16136;DHT22;8173;48.354;9.248;2023-04-06T11:32:28;13.50;63.00
16136;DHT22;8173;48.354;9.248;2023-04-06T11:34:58;13.90;71.00
16136;DHT22;8173;48.354;9.248;2023-04-06T11:37:26;13.20;64.00
16136;DHT22;8173;48.354;9.248;2023-04-06T11:39:55;13.10;64.90
16136;DHT22;8173;48.354;9.248;2023-04-06T11:42:23;13.40;70.30
16136;DHT22;8173;48.354;9.248;2023-04-06T11:44:51;13.60;67.20
16136;DHT22;8173;48.354;9.248;2023-04-06T11:47:19;13.50;65.30
16136;DHT22;8173;48.354;9.248;2023-04-06T11:49:47;13.30;66.20
16136;DHT22;8173;48.354;9.248;2023-04-06T11:52:17;13.40;64.90
16136;DHT22;8173;48.354;9.248;2023-04-06T11:54:45;13.80;69.10
16136;DHT22;8173;48.354;9.248;2023-04-06T11:57:12;14.60;70.90
16136;DHT22;8173;48.354;9.248;2023-04-06T11:59:39;15.10;65.70
16136;DHT22;8173;48.354;9.248;2023-04-06T12:02:05;14.50;69.00
16136;DHT22;8173;48.354;9.248;2023-04-06T12:04:32;14.30;66.30
16136;DHT22;8173;48.354;9.248;2023-04-06T12:07:00;14.60;69.40
16136;DHT22;8173;48.354;9.248;2023-04-06T12:09:28;15.20;71.40
16136;DHT22;8173;48.354;9.248;2023-04-06T12:11:55;14.80;64.00
16136;DHT22;8173;48.354;9.248;2023-04-06T12:14:23;14.70;64.90
16136;DHT22;8173;48.354;9.248;2023-04-06T12:16:50;14.90;66.00
16136;DHT22;8173;48.354;9.248;2023-04-06T12:19:17;14.90;65.80
16136;DHT22;8173;48.354;9.248;2023-04-06T12:21:44;14.80;64.90
16136;DHT22;8173;48.354;9.248;2023-04-06T12:24:10;14.30;65.10
16136;DHT22;8173;48.354;9.248;2023-04-06T12:26:38;13.90;68.00
16136;DHT22;8173;48.354;9.248;2023-04-06T12:29:06;13.90;68.80
16136;DHT22;8173;48.354;9.248;2023-04-06T12:31:35;14.00;62.50
16136;DHT22;8173;48.354;9.248;2023-04-06T12:34:04;14.10;61.90
16136;DHT22;8173;48.354;9.248;2023-04-06T12:36:30;14.10;66.60
16136;DHT22;8173;48.354;9.248;2023-04-06T12:38:57;14.40;67.80
16136;DHT22;8173;48.354;9.248;2023-04-06T12:41:25;14.60;68.60
16136;DHT22;8173;48.354;9.248;2023-04-06T12:43:53;14.40;62.90
16136;DHT22;8173;48.354;9.248;2023-04-06T12:46:20;13.70;59.90
16136;DHT22;8173;48.354;9.248;2023-04-06T12:48:47;13.50;62.70
16136;DHT22;8173;48.354;9.248;2023-04-06T12:51:14;13.10;64.30
16136;DHT22;8173;48.354;9.248;2023-04-06T12:53:42;13.30;66.60
16136;DHT22;8173;48.354;9.248;2023-04-06T12:56:13;13.30;62.80
16136;DHT22;8173;48.354;9.248;2023-04-06T12:58:41;13.20;61.10
16136;DHT22;8173;48.354;9.248;2023-04-06T13:01:09;13.30;67.60
16136;DHT22;8173;48.354;9.248;2023-04-06T13:03:37;13.70;65.50
16136;DHT22;8173;48.354;9.248;2023-04-06T13:06:03;14.20;62.10
16136;DHT22;8173;48.354;9.248;2023-04-06T13:08:30;14.20;63.30
16136;DHT22;8173;48.354;9.248;2023-04-06T13:10:57;14.30;58.30
16136;DHT22;8173;48.354;9.248;2023-04-06T13:13:25;14.00;58.10
16136;DHT22;8173;48.354;9.248;2023-04-06T13:15:54;13.90;58.10
16136;DHT22;8173;48.354;9.248;2023-04-06T13:18:23;14.00;59.00
16136;DHT22;8173;48.354;9.248;2023-04-06T13:20:50;13.70;59.10
16136;DHT22;8173;48.354;9.248;2023-04-06T13:23:17;13.90;60.00
16136;DHT22;8173;48.354;9.248;2023-04-06T13:25:43;13.90;59.10
16136;DHT22;8173;48.354;9.248;2023-04-06T13:28:10;14.30;60.40
16136;DHT22;8173;48.354;9.248;2023-04-06T13:30:37;14.90;61.90
16136;DHT22;8173;48.354;9.248;2023-04-06T13:33:04;14.60;63.90
16136;DHT22;8173;48.354;9.248;2023-04-06T13:35:33;14.90;59.60
16136;DHT22;8173;48.354;9.248;2023-04-06T13:38:01;14.80;59.90
16136;DHT22;8173;48.354;9.248;2023-04-06T13:40:28;14.20;57.30
16136;DHT22;8173;48.354;9.248;2023-04-06T13:42:54;13.30;60.40
16136;DHT22;8173;48.354;9.248;2023-04-06T13:45:21;12.80;59.50
16136;DHT22;8173;48.354;9.248;2023-04-06T13:47:48;12.50;59.80
16136;DHT22;8173;48.354;9.248;2023-04-06T13:50:15;12.20;61.00
16136;DHT22;8173;48.354;9.248;2023-04-06T13:52:43;11.90;63.70
16136;DHT22;8173;48.354;9.248;2023-04-06T13:55:10;11.60;62.70
16136;DHT22;8173;48.354;9.248;2023-04-06T13:57:36;12.00;63.90
16136;DHT22;8173;48.354;9.248;2023-04-06T14:00:04;12.00;64.50
16136;DHT22;8173;48.354;9.248;2023-04-06T14:02:31;12.30;62.90
16136;DHT22;8173;48.354;9.248;2023-04-06T14:04:58;12.20;62.40
16136;DHT22;8173;48.354;9.248;2023-04-06T14:07:25;12.30;63.50
16136;DHT22;8173;48.354;9.248;2023-04-06T14:09:53;13.00;68.00
16136;DHT22;8173;48.354;9.248;2023-04-06T14:12:20;13.50;66.40
16136;DHT22;8173;48.354;9.248;2023-04-06T14:14:47;13.50;65.70
16136;DHT22;8173;48.354;9.248;2023-04-06T14:17:13;13.10;67.20
16136;DHT22;8173;48.354;9.248;2023-04-06T14:19:40;12.80;62.30
16136;DHT22;8173;48.354;9.248;2023-04-06T14:22:08;12.50;64.20
16136;DHT22;8173;48.354;9.248;2023-04-06T14:24:35;12.60;64.90
16136;DHT22;8173;48.354;9.248;2023-04-06T14:27:04;12.90;65.30
16136;DHT22;8173;48.354;9.248;2023-04-06T14:29:31;13.20;65.70
16136;DHT22;8173;48.354;9.248;2023-04-06T14:31:57;13.10;63.10
16136;DHT22;8173;48.354;9.248;2023-04-06T14:34:25;13.10;64.50
16136;DHT22;8173;48.354;9.248;2023-04-06T14:36:52;13.20;62.90
16136;DHT22;8173;48.354;9.248;2023-04-06T14:39:19;13.20;61.00
16136;DHT22;8173;48.354;9.248;2023-04-06T14:41:45;13.30;61.50
16136;DHT22;8173;48.354;9.248;2023-04-06T14:44:15;13.10;62.20
16136;DHT22;8173;48.354;9.248;2023-04-06T14:46:42;12.70;62.10
16136;DHT22;8173;48.354;9.248;2023-04-06T14:49:08;12.50;61.90
16136;DHT22;8173;48.354;9.248;2023-04-06T14:51:35;12.00;61.60
16136;DHT22;8173;48.354;9.248;2023-04-06T14:54:02;11.50;65.10
16136;DHT22;8173;48.354;9.248;2023-04-06T14:56:29;11.60;65.50
16136;DHT22;8173;48.354;9.248;2023-04-06T14:58:57;11.30;64.90
16136;DHT22;8173;48.354;9.248;2023-04-06T15:01:26;11.30;66.00
16136;DHT22;8173;48.354;9.248;2023-04-06T15:03:53;11.40;65.30
16136;DHT22;8173;48.354;9.248;2023-04-06T15:06:20;11.30;66.40
16136;DHT22;8173;48.354;9.248;2023-04-06T15:08:48;11.40;66.30
16136;DHT22;8173;48.354;9.248;2023-04-06T15:11:14;11.50;66.20
16136;DHT22;8173;48.354;9.248;2023-04-06T15:13:41;11.40;66.10
16136;DHT22;8173;48.354;9.248;2023-04-06T15:16:08;11.70;64.20
16136;DHT22;8173;48.354;9.248;2023-04-06T15:18:36;11.70;66.40
16136;DHT22;8173;48.354;9.248;2023-04-06T15:21:03;11.60;65.70
16136;DHT22;8173;48.354;9.248;2023-04-06T15:23:30;11.60;64.40
16136;DHT22;8173;48.354;9.248;2023-04-06T15:25:58;11.70;64.10
16136;DHT22;8173;48.354;9.248;2023-04-06T15:28:25;11.30;65.10
16136;DHT22;8173;48.354;9.248;2023-04-06T15:30:52;11.00;65.60
16136;DHT22;8173;48.354;9.248;2023-04-06T15:33:20;10.90;66.50
16136;DHT22;8173;48.354;9.248;2023-04-06T15:35:48;10.70;68.80
16136;DHT22;8173;48.354;9.248;2023-04-06T15:38:15;11.00;67.90
16136;DHT22;8173;48.354;9.248;2023-04-06T15:40:43;11.00;68.70
16136;DHT22;8173;48.354;9.248;2023-04-06T15:43:10;11.20;69.80
16136;DHT22;8173;48.354;9.248;2023-04-06T15:45:37;11.10;68.70
16136;DHT22;8173;48.354;9.248;2023-04-06T15:48:04;10.90;69.40
16136;DHT22;8173;48.354;9.248;2023-04-06T15:50:31;11.00;70.30